Weather at Tønsberg Heliport, Hospital

Public forecast

Using degrees Celsius for public forecast. Weather courtesy of forecast.io.

Closest aviation weather report (METAR) to Tønsberg Heliport, Hospital

Report is more than 2 hours old.

Closest report is Sandefjord Airport, Torp, 7.1 nm (13.2 km) SW. Retrieved 2021/04/12 18:50 UTC (2 hours ago):

ENTO 121850Z VRB03KT 9999 BKN034 02/01 Q1014 NOSIG

Closest aviation forecast (TAF) to Tønsberg Heliport, Hospital

Closest forecast is Sandefjord Airport, Torp, 7.1 nm (13.2 km) SW. Retrieved 2021/04/12 18:57 UTC (2 hours ago):

TAF ENTO 121700Z 1218/1318 34008KT 9999 -SHRA SCT008 BKN020 TEMPO 1218/1303 2000 SHSNRA BKN008 FEW020CB